sensor_id;sensor_type;location;lat;lon;timestamp;pressure;altitude;pressure_sealevel;temperature;humidity
22566;BME280;11449;51.330;19.378;2022-08-01T00:04:57;99137.86;;;20.44;100.00
22566;BME280;11449;51.330;19.378;2022-08-01T00:09:58;99142.22;;;20.57;100.00
22566;BME280;11449;51.330;19.378;2022-08-01T00:14:59;99131.56;;;20.45;100.00
22566;BME280;11449;51.330;19.378;2022-08-01T00:20:01;99130.84;;;20.43;100.00
22566;BME280;11449;51.330;19.378;2022-08-01T00:25:05;99123.64;;;20.38;100.00
22566;BME280;11449;51.330;19.378;2022-08-01T00:30:07;99129.71;;;20.27;100.00
22566;BME280;11449;51.330;19.378;2022-08-01T00:35:09;99125.44;;;20.12;100.00
22566;BME280;11449;51.330;19.378;2022-08-01T00:40:10;99125.63;;;20.03;100.00
22566;BME280;11449;51.330;19.378;2022-08-01T00:45:12;99127.81;;;20.04;100.00
22566;BME280;11449;51.330;19.378;2022-08-01T00:50:13;99124.16;;;20.17;100.00
22566;BME280;11449;51.330;19.378;2022-08-01T00:55:15;99130.78;;;19.74;100.00
22566;BME280;11449;51.330;19.378;2022-08-01T01:00:16;99126.99;;;19.96;100.00
22566;BME280;11449;51.330;19.378;2022-08-01T01:05:17;99127.62;;;20.12;100.00
22566;BME280;11449;51.330;19.378;2022-08-01T01:10:46;99131.15;;;20.00;100.00
22566;BME280;11449;51.330;19.378;2022-08-01T01:15:58;99123.05;;;19.89;100.00
22566;BME280;11449;51.330;19.378;2022-08-01T01:21:07;99125.88;;;20.18;100.00
22566;BME280;11449;51.330;19.378;2022-08-01T01:31:21;99125.14;;;19.78;100.00
22566;BME280;11449;51.330;19.378;2022-08-01T01:36:25;99123.49;;;19.83;100.00
22566;BME280;11449;51.330;19.378;2022-08-01T01:41:28;99129.56;;;19.98;100.00
22566;BME280;11449;51.330;19.378;2022-08-01T01:46:31;99122.58;;;20.02;100.00
22566;BME280;11449;51.330;19.378;2022-08-01T01:51:33;99125.50;;;19.67;100.00
22566;BME280;11449;51.330;19.378;2022-08-01T01:56:35;99119.95;;;19.37;100.00
22566;BME280;11449;51.330;19.378;2022-08-01T02:01:38;99117.30;;;19.37;100.00
22566;BME280;11449;51.330;19.378;2022-08-01T02:06:40;99124.89;;;19.43;100.00
22566;BME280;11449;51.330;19.378;2022-08-01T02:11:43;99120.17;;;18.40;100.00
22566;BME280;11449;51.330;19.378;2022-08-01T02:16:48;99112.91;;;18.70;100.00
22566;BME280;11449;51.330;19.378;2022-08-01T02:21:52;99113.95;;;18.75;100.00
22566;BME280;11449;51.330;19.378;2022-08-01T02:26:56;99109.28;;;18.16;100.00
22566;BME280;11449;51.330;19.378;2022-08-01T02:31:58;99108.80;;;18.72;100.00
22566;BME280;11449;51.330;19.378;2022-08-01T02:37:02;99106.27;;;18.70;100.00
22566;BME280;11449;51.330;19.378;2022-08-01T02:42:06;99114.12;;;18.72;100.00
22566;BME280;11449;51.330;19.378;2022-08-01T02:47:08;99113.36;;;18.77;100.00
22566;BME280;11449;51.330;19.378;2022-08-01T02:52:13;99113.77;;;18.64;100.00
22566;BME280;11449;51.330;19.378;2022-08-01T02:57:16;99117.87;;;18.62;100.00
22566;BME280;11449;51.330;19.378;2022-08-01T03:02:20;99128.25;;;18.60;100.00
22566;BME280;11449;51.330;19.378;2022-08-01T03:07:22;99124.36;;;18.01;100.00
22566;BME280;11449;51.330;19.378;2022-08-01T03:12:27;99132.80;;;18.29;100.00
22566;BME280;11449;51.330;19.378;2022-08-01T03:17:30;99124.83;;;17.80;100.00
22566;BME280;11449;51.330;19.378;2022-08-01T03:22:33;99123.14;;;18.00;100.00
22566;BME280;11449;51.330;19.378;2022-08-01T03:27:36;99129.20;;;17.81;100.00
22566;BME280;11449;51.330;19.378;2022-08-01T03:32:38;99126.62;;;18.57;100.00
22566;BME280;11449;51.330;19.378;2022-08-01T03:37:45;99114.39;;;17.98;100.00
22566;BME280;11449;51.330;19.378;2022-08-01T03:42:48;99115.11;;;16.98;100.00
22566;BME280;11449;51.330;19.378;2022-08-01T03:48:02;99113.35;;;18.15;100.00
22566;BME280;11449;51.330;19.378;2022-08-01T03:53:05;99114.28;;;18.90;100.00
22566;BME280;11449;51.330;19.378;2022-08-01T03:58:09;99112.91;;;18.70;100.00
22566;BME280;11449;51.330;19.378;2022-08-01T04:03:11;99117.27;;;18.78;100.00
22566;BME280;11449;51.330;19.378;2022-08-01T04:08:13;99119.24;;;18.82;100.00
22566;BME280;11449;51.330;19.378;2022-08-01T04:13:14;99119.20;;;18.62;100.00
22566;BME280;11449;51.330;19.378;2022-08-01T04:18:16;99128.41;;;18.49;100.00
22566;BME280;11449;51.330;19.378;2022-08-01T04:23:22;99120.89;;;18.70;100.00
22566;BME280;11449;51.330;19.378;2022-08-01T04:28:25;99124.34;;;18.37;100.00
22566;BME280;11449;51.330;19.378;2022-08-01T04:33:28;99141.23;;;18.64;100.00
22566;BME280;11449;51.330;19.378;2022-08-01T04:38:32;99133.75;;;19.37;100.00
22566;BME280;11449;51.330;19.378;2022-08-01T04:43:34;99138.52;;;19.12;100.00
22566;BME280;11449;51.330;19.378;2022-08-01T04:48:37;99135.89;;;18.78;100.00
22566;BME280;11449;51.330;19.378;2022-08-01T04:53:39;99135.27;;;19.61;100.00
22566;BME280;11449;51.330;19.378;2022-08-01T04:58:41;99140.59;;;19.61;100.00
22566;BME280;11449;51.330;19.378;2022-08-01T05:03:43;99139.27;;;19.99;100.00
22566;BME280;11449;51.330;19.378;2022-08-01T05:08:44;99138.52;;;18.16;100.00
22566;BME280;11449;51.330;19.378;2022-08-01T05:13:46;99139.45;;;19.45;100.00
22566;BME280;11449;51.330;19.378;2022-08-01T05:18:47;99146.87;;;18.60;100.00
22566;BME280;11449;51.330;19.378;2022-08-01T05:23:48;99143.30;;;19.66;100.00
22566;BME280;11449;51.330;19.378;2022-08-01T05:28:49;99140.21;;;19.60;100.00
22566;BME280;11449;51.330;19.378;2022-08-01T05:33:50;99137.44;;;20.12;100.00
22566;BME280;11449;51.330;19.378;2022-08-01T05:38:52;99131.38;;;19.72;100.00
22566;BME280;11449;51.330;19.378;2022-08-01T05:43:53;99137.73;;;20.58;100.00
22566;BME280;11449;51.330;19.378;2022-08-01T05:48:54;99141.41;;;21.04;100.00
22566;BME280;11449;51.330;19.378;2022-08-01T05:53:56;99144.38;;;20.27;100.00
22566;BME280;11449;51.330;19.378;2022-08-01T05:58:57;99144.85;;;20.39;100.00
22566;BME280;11449;51.330;19.378;2022-08-01T06:03:58;99141.72;;;20.14;100.00
22566;BME280;11449;51.330;19.378;2022-08-01T06:08:59;99138.30;;;20.50;100.00
22566;BME280;11449;51.330;19.378;2022-08-01T06:14:00;99145.78;;;20.81;100.00
22566;BME280;11449;51.330;19.378;2022-08-01T06:19:02;99150.79;;;20.37;100.00
22566;BME280;11449;51.330;19.378;2022-08-01T06:24:04;99154.80;;;21.68;100.00
22566;BME280;11449;51.330;19.378;2022-08-01T06:29:05;99163.45;;;22.74;100.00
22566;BME280;11449;51.330;19.378;2022-08-01T06:34:06;99162.47;;;22.63;100.00
22566;BME280;11449;51.330;19.378;2022-08-01T06:39:07;99162.06;;;23.44;100.00
22566;BME280;11449;51.330;19.378;2022-08-01T06:44:08;99163.14;;;23.04;100.00
22566;BME280;11449;51.330;19.378;2022-08-01T06:49:10;99172.03;;;23.10;100.00
22566;BME280;11449;51.330;19.378;2022-08-01T06:54:11;99166.79;;;23.46;100.00
22566;BME280;11449;51.330;19.378;2022-08-01T06:59:12;99160.53;;;23.19;100.00
22566;BME280;11449;51.330;19.378;2022-08-01T07:04:13;99152.77;;;23.54;100.00
22566;BME280;11449;51.330;19.378;2022-08-01T07:09:15;99154.20;;;23.99;100.00
22566;BME280;11449;51.330;19.378;2022-08-01T07:14:16;99156.25;;;24.52;100.00
22566;BME280;11449;51.330;19.378;2022-08-01T07:19:17;99155.87;;;25.60;100.00
22566;BME280;11449;51.330;19.378;2022-08-01T07:24:18;99147.53;;;24.09;100.00
22566;BME280;11449;51.330;19.378;2022-08-01T07:29:26;99143.61;;;24.19;100.00
22566;BME280;11449;51.330;19.378;2022-08-01T07:34:27;99153.20;;;26.49;100.00
22566;BME280;11449;51.330;19.378;2022-08-01T07:39:29;99158.97;;;25.75;100.00
22566;BME280;11449;51.330;19.378;2022-08-01T07:44:30;99157.94;;;24.69;100.00
22566;BME280;11449;51.330;19.378;2022-08-01T07:49:31;99158.93;;;26.77;100.00
22566;BME280;11449;51.330;19.378;2022-08-01T07:54:32;99151.56;;;26.79;100.00
22566;BME280;11449;51.330;19.378;2022-08-01T07:59:33;99143.02;;;25.20;100.00
22566;BME280;11449;51.330;19.378;2022-08-01T08:04:35;99144.38;;;28.08;100.00
22566;BME280;11449;51.330;19.378;2022-08-01T08:09:36;99145.18;;;28.52;100.00
22566;BME280;11449;51.330;19.378;2022-08-01T08:14:37;99148.49;;;27.94;100.00
22566;BME280;11449;51.330;19.378;2022-08-01T08:19:38;99145.49;;;26.91;100.00
22566;BME280;11449;51.330;19.378;2022-08-01T08:24:40;99143.17;;;27.80;100.00
22566;BME280;11449;51.330;19.378;2022-08-01T08:29:42;99154.30;;;28.89;100.00
22566;BME280;11449;51.330;19.378;2022-08-01T08:34:43;99152.05;;;30.47;100.00
22566;BME280;11449;51.330;19.378;2022-08-01T08:39:44;99149.72;;;30.12;100.00
22566;BME280;11449;51.330;19.378;2022-08-01T08:44:46;99141.52;;;28.31;100.00
22566;BME280;11449;51.330;19.378;2022-08-01T08:49:49;99147.07;;;30.63;100.00
22566;BME280;11449;51.330;19.378;2022-08-01T08:54:51;99153.75;;;30.87;100.00
22566;BME280;11449;51.330;19.378;2022-08-01T08:59:53;99155.84;;;28.99;100.00
22566;BME280;11449;51.330;19.378;2022-08-01T09:04:55;99153.31;;;31.37;100.00
22566;BME280;11449;51.330;19.378;2022-08-01T09:09:57;99158.55;;;28.61;100.00
22566;BME280;11449;51.330;19.378;2022-08-01T09:14:58;99161.73;;;28.83;100.00
22566;BME280;11449;51.330;19.378;2022-08-01T09:19:59;99164.63;;;30.12;100.00
22566;BME280;11449;51.330;19.378;2022-08-01T09:25:07;99161.45;;;29.02;100.00
22566;BME280;11449;51.330;19.378;2022-08-01T09:30:17;99157.86;;;28.04;100.00
22566;BME280;11449;51.330;19.378;2022-08-01T09:35:30;99157.26;;;27.35;100.00
22566;BME280;11449;51.330;19.378;2022-08-01T09:40:45;99158.07;;;26.86;100.00
22566;BME280;11449;51.330;19.378;2022-08-01T09:45:47;99150.27;;;26.97;100.00
22566;BME280;11449;51.330;19.378;2022-08-01T09:50:51;99156.64;;;26.55;100.00
22566;BME280;11449;51.330;19.378;2022-08-01T09:55:53;99153.41;;;26.93;100.00
22566;BME280;11449;51.330;19.378;2022-08-01T10:00:59;99149.52;;;26.27;100.00
22566;BME280;11449;51.330;19.378;2022-08-01T10:06:19;99153.83;;;26.33;100.00
22566;BME280;11449;51.330;19.378;2022-08-01T10:11:20;99156.55;;;26.74;100.00
22566;BME280;11449;51.330;19.378;2022-08-01T10:16:23;99150.52;;;27.35;100.00
22566;BME280;11449;51.330;19.378;2022-08-01T10:21:27;99149.52;;;27.93;100.00
22566;BME280;11449;51.330;19.378;2022-08-01T10:26:33;99154.97;;;28.83;100.00
22566;BME280;11449;51.330;19.378;2022-08-01T10:31:34;99148.52;;;28.71;100.00
22566;BME280;11449;51.330;19.378;2022-08-01T10:36:37;99146.20;;;28.03;100.00
22566;BME280;11449;51.330;19.378;2022-08-01T10:41:40;99147.53;;;29.55;100.00
22566;BME280;11449;51.330;19.378;2022-08-01T10:46:44;99140.44;;;30.10;100.00
22566;BME280;11449;51.330;19.378;2022-08-01T10:51:46;99145.73;;;29.01;100.00
22566;BME280;11449;51.330;19.378;2022-08-01T10:56:49;99138.70;;;31.20;100.00
22566;BME280;11449;51.330;19.378;2022-08-01T11:01:58;99126.25;;;31.48;100.00
22566;BME280;11449;51.330;19.378;2022-08-01T11:07:05;99126.19;;;31.11;100.00
22566;BME280;11449;51.330;19.378;2022-08-01T11:12:11;99128.52;;;30.83;100.00
22566;BME280;11449;51.330;19.378;2022-08-01T11:17:33;99132.66;;;29.75;100.00
22566;BME280;11449;51.330;19.378;2022-08-01T11:44:14;99121.14;;;29.97;100.00
22566;BME280;11449;51.330;19.378;2022-08-01T11:54:58;99125.56;;;30.66;100.00
22566;BME280;11449;51.330;19.378;2022-08-01T12:00:01;99119.81;;;31.49;100.00
22566;BME280;11449;51.330;19.378;2022-08-01T12:05:07;99120.72;;;30.45;100.00
22566;BME280;11449;51.330;19.378;2022-08-01T12:10:14;99113.52;;;32.13;100.00
22566;BME280;11449;51.330;19.378;2022-08-01T12:15:17;99116.63;;;34.66;100.00
22566;BME280;11449;51.330;19.378;2022-08-01T12:20:21;99113.43;;;32.35;100.00
22566;BME280;11449;51.330;19.378;2022-08-01T12:25:23;99109.42;;;31.52;100.00
22566;BME280;11449;51.330;19.378;2022-08-01T12:30:24;99109.63;;;29.83;100.00
22566;BME280;11449;51.330;19.378;2022-08-01T12:35:29;99119.44;;;33.25;100.00
22566;BME280;11449;51.330;19.378;2022-08-01T12:40:40;99105.05;;;31.51;100.00
22566;BME280;11449;51.330;19.378;2022-08-01T12:45:39;99112.56;;;33.40;100.00
22566;BME280;11449;51.330;19.378;2022-08-01T12:50:45;99107.39;;;34.15;100.00
22566;BME280;11449;51.330;19.378;2022-08-01T12:55:49;99104.32;;;34.49;100.00
22566;BME280;11449;51.330;19.378;2022-08-01T13:01:02;99112.10;;;34.86;100.00
22566;BME280;11449;51.330;19.378;2022-08-01T13:05:58;99112.89;;;33.05;100.00
22566;BME280;11449;51.330;19.378;2022-08-01T13:11:11;99104.42;;;30.88;100.00
22566;BME280;11449;51.330;19.378;2022-08-01T13:16:18;99103.66;;;31.06;100.00
22566;BME280;11449;51.330;19.378;2022-08-01T13:21:26;99095.82;;;30.80;100.00
22566;BME280;11449;51.330;19.378;2022-08-01T13:31:42;99089.81;;;31.01;100.00
22566;BME280;11449;51.330;19.378;2022-08-01T13:36:44;99086.55;;;31.01;100.00
22566;BME280;11449;51.330;19.378;2022-08-01T13:41:46;99092.18;;;31.00;100.00
22566;BME280;11449;51.330;19.378;2022-08-01T13:46:48;99088.56;;;30.30;100.00
22566;BME280;11449;51.330;19.378;2022-08-01T13:51:49;99090.84;;;29.78;100.00
22566;BME280;11449;51.330;19.378;2022-08-01T13:56:52;99081.70;;;29.79;100.00
22566;BME280;11449;51.330;19.378;2022-08-01T14:01:53;99076.61;;;30.86;100.00
22566;BME280;11449;51.330;19.378;2022-08-01T14:06:55;99079.30;;;30.04;100.00
22566;BME280;11449;51.330;19.378;2022-08-01T14:11:56;99079.20;;;30.40;100.00
22566;BME280;11449;51.330;19.378;2022-08-01T14:16:57;99081.03;;;29.89;100.00
22566;BME280;11449;51.330;19.378;2022-08-01T14:21:58;99087.14;;;29.87;100.00
22566;BME280;11449;51.330;19.378;2022-08-01T14:26:59;99090.53;;;29.32;100.00
22566;BME280;11449;51.330;19.378;2022-08-01T14:32:01;99089.50;;;29.90;100.00
22566;BME280;11449;51.330;19.378;2022-08-01T14:37:03;99089.49;;;29.94;100.00
22566;BME280;11449;51.330;19.378;2022-08-01T14:42:05;99091.19;;;29.75;100.00
22566;BME280;11449;51.330;19.378;2022-08-01T14:47:06;99092.89;;;29.67;100.00
22566;BME280;11449;51.330;19.378;2022-08-01T14:52:07;99093.05;;;29.70;100.00
22566;BME280;11449;51.330;19.378;2022-08-01T14:57:09;99098.31;;;29.59;100.00
22566;BME280;11449;51.330;19.378;2022-08-01T15:02:10;99098.76;;;29.27;100.00
22566;BME280;11449;51.330;19.378;2022-08-01T15:07:13;99091.53;;;29.35;100.00
22566;BME280;11449;51.330;19.378;2022-08-01T15:12:15;99089.46;;;29.13;100.00
22566;BME280;11449;51.330;19.378;2022-08-01T15:17:21;99096.61;;;29.42;100.00
22566;BME280;11449;51.330;19.378;2022-08-01T15:22:24;99096.52;;;28.94;100.00
22566;BME280;11449;51.330;19.378;2022-08-01T15:27:27;99098.31;;;28.35;100.00
22566;BME280;11449;51.330;19.378;2022-08-01T15:32:28;99093.91;;;28.34;100.00
22566;BME280;11449;51.330;19.378;2022-08-01T15:37:30;99093.41;;;28.35;100.00
22566;BME280;11449;51.330;19.378;2022-08-01T15:42:31;99095.77;;;28.34;100.00
22566;BME280;11449;51.330;19.378;2022-08-01T15:47:32;99093.87;;;28.00;100.00
22566;BME280;11449;51.330;19.378;2022-08-01T15:52:34;99094.91;;;28.33;100.00
22566;BME280;11449;51.330;19.378;2022-08-01T15:57:35;99096.39;;;28.61;100.00
22566;BME280;11449;51.330;19.378;2022-08-01T16:02:36;99098.84;;;28.81;100.00
22566;BME280;11449;51.330;19.378;2022-08-01T16:07:37;99096.16;;;28.09;100.00
22566;BME280;11449;51.330;19.378;2022-08-01T16:12:38;99102.80;;;28.98;100.00
22566;BME280;11449;51.330;19.378;2022-08-01T16:17:40;99100.61;;;29.02;100.00
22566;BME280;11449;51.330;19.378;2022-08-01T16:22:41;99103.41;;;28.84;100.00
22566;BME280;11449;51.330;19.378;2022-08-01T16:27:42;99113.30;;;28.63;100.00
22566;BME280;11449;51.330;19.378;2022-08-01T16:32:43;99110.41;;;28.23;100.00
22566;BME280;11449;51.330;19.378;2022-08-01T16:37:45;99104.38;;;27.42;100.00
22566;BME280;11449;51.330;19.378;2022-08-01T16:42:46;99101.68;;;27.42;100.00
22566;BME280;11449;51.330;19.378;2022-08-01T16:47:47;99109.70;;;27.34;100.00
22566;BME280;11449;51.330;19.378;2022-08-01T16:52:49;99111.69;;;27.67;100.00
22566;BME280;11449;51.330;19.378;2022-08-01T16:57:50;99104.38;;;27.60;100.00
22566;BME280;11449;51.330;19.378;2022-08-01T17:02:51;99110.94;;;27.22;100.00
22566;BME280;11449;51.330;19.378;2022-08-01T17:07:53;99109.01;;;27.14;100.00
22566;BME280;11449;51.330;19.378;2022-08-01T17:12:54;99117.77;;;27.16;100.00
22566;BME280;11449;51.330;19.378;2022-08-01T17:17:55;99122.59;;;27.09;100.00
22566;BME280;11449;51.330;19.378;2022-08-01T17:22:57;99121.59;;;27.45;100.00
22566;BME280;11449;51.330;19.378;2022-08-01T17:27:58;99122.17;;;26.72;100.00
22566;BME280;11449;51.330;19.378;2022-08-01T17:32:59;99127.70;;;26.71;100.00
22566;BME280;11449;51.330;19.378;2022-08-01T17:38:00;99120.63;;;27.46;100.00
22566;BME280;11449;51.330;19.378;2022-08-01T17:43:01;99132.02;;;27.09;100.00
22566;BME280;11449;51.330;19.378;2022-08-01T17:48:03;99128.78;;;26.87;100.00
22566;BME280;11449;51.330;19.378;2022-08-01T17:53:05;99136.77;;;26.70;100.00
22566;BME280;11449;51.330;19.378;2022-08-01T17:58:07;99143.79;;;26.90;100.00
22566;BME280;11449;51.330;19.378;2022-08-01T18:03:09;99160.67;;;26.92;100.00
22566;BME280;11449;51.330;19.378;2022-08-01T18:08:11;99159.80;;;26.64;100.00
22566;BME280;11449;51.330;19.378;2022-08-01T18:13:12;99164.64;;;26.61;100.00
22566;BME280;11449;51.330;19.378;2022-08-01T18:18:16;99164.91;;;26.44;100.00
22566;BME280;11449;51.330;19.378;2022-08-01T18:23:19;99167.22;;;26.53;100.00
22566;BME280;11449;51.330;19.378;2022-08-01T18:28:20;99167.87;;;26.27;100.00
22566;BME280;11449;51.330;19.378;2022-08-01T18:33:22;99165.32;;;26.16;100.00
22566;BME280;11449;51.330;19.378;2022-08-01T18:38:23;99177.16;;;26.29;100.00
22566;BME280;11449;51.330;19.378;2022-08-01T18:43:24;99189.53;;;25.93;100.00
22566;BME280;11449;51.330;19.378;2022-08-01T18:48:26;99191.03;;;25.82;100.00
22566;BME280;11449;51.330;19.378;2022-08-01T18:53:27;99194.39;;;26.03;100.00
22566;BME280;11449;51.330;19.378;2022-08-01T18:58:28;99198.19;;;25.77;100.00
22566;BME280;11449;51.330;19.378;2022-08-01T19:03:29;99200.42;;;26.11;100.00
22566;BME280;11449;51.330;19.378;2022-08-01T19:08:31;99214.51;;;26.09;100.00
22566;BME280;11449;51.330;19.378;2022-08-01T19:13:32;99216.61;;;26.15;100.00
22566;BME280;11449;51.330;19.378;2022-08-01T19:18:33;99218.38;;;25.87;100.00
22566;BME280;11449;51.330;19.378;2022-08-01T19:23:35;99226.48;;;25.18;100.00
22566;BME280;11449;51.330;19.378;2022-08-01T19:28:59;99233.52;;;25.00;100.00
22566;BME280;11449;51.330;19.378;2022-08-01T19:34:00;99241.14;;;25.20;100.00
22566;BME280;11449;51.330;19.378;2022-08-01T19:39:04;99240.81;;;25.82;100.00
22566;BME280;11449;51.330;19.378;2022-08-01T19:44:06;99242.98;;;25.54;100.00
22566;BME280;11449;51.330;19.378;2022-08-01T19:49:13;99238.48;;;25.04;100.00
22566;BME280;11449;51.330;19.378;2022-08-01T19:54:17;99241.09;;;25.35;100.00
22566;BME280;11449;51.330;19.378;2022-08-01T19:59:20;99233.97;;;25.15;100.00
22566;BME280;11449;51.330;19.378;2022-08-01T20:04:23;99237.20;;;24.63;100.00
22566;BME280;11449;51.330;19.378;2022-08-01T20:09:26;99247.37;;;25.30;100.00
22566;BME280;11449;51.330;19.378;2022-08-01T20:14:28;99237.34;;;25.41;100.00
22566;BME280;11449;51.330;19.378;2022-08-01T20:19:29;99249.08;;;25.21;100.00
22566;BME280;11449;51.330;19.378;2022-08-01T20:24:40;99251.09;;;24.83;100.00
22566;BME280;11449;51.330;19.378;2022-08-01T20:29:43;99257.47;;;24.82;100.00
22566;BME280;11449;51.330;19.378;2022-08-01T20:34:44;99257.21;;;25.00;100.00
22566;BME280;11449;51.330;19.378;2022-08-01T20:39:46;99262.60;;;24.80;100.00
22566;BME280;11449;51.330;19.378;2022-08-01T20:44:48;99257.43;;;24.37;100.00
22566;BME280;11449;51.330;19.378;2022-08-01T20:49:51;99261.14;;;24.66;100.00
22566;BME280;11449;51.330;19.378;2022-08-01T20:54:54;99253.11;;;25.06;100.00
22566;BME280;11449;51.330;19.378;2022-08-01T21:00:04;99257.47;;;24.82;100.00
22566;BME280;11449;51.330;19.378;2022-08-01T21:05:07;99257.31;;;25.14;100.00
22566;BME280;11449;51.330;19.378;2022-08-01T21:10:12;99254.17;;;25.24;100.00
22566;BME280;11449;51.330;19.378;2022-08-01T21:15:30;99273.14;;;25.08;100.00
22566;BME280;11449;51.330;19.378;2022-08-01T21:20:34;99268.23;;;25.22;100.00
22566;BME280;11449;51.330;19.378;2022-08-01T21:25:36;99274.12;;;25.07;100.00
22566;BME280;11449;51.330;19.378;2022-08-01T21:30:39;99276.19;;;24.78;100.00
22566;BME280;11449;51.330;19.378;2022-08-01T21:35:40;99283.89;;;25.08;100.00
22566;BME280;11449;51.330;19.378;2022-08-01T21:40:42;99288.99;;;25.11;100.00
22566;BME280;11449;51.330;19.378;2022-08-01T21:45:46;99280.86;;;24.91;100.00
22566;BME280;11449;51.330;19.378;2022-08-01T21:56:06;99285.53;;;24.89;100.00
22566;BME280;11449;51.330;19.378;2022-08-01T22:01:39;99281.87;;;24.70;100.00
22566;BME280;11449;51.330;19.378;2022-08-01T22:06:43;99290.33;;;24.80;100.00
22566;BME280;11449;51.330;19.378;2022-08-01T22:11:45;99290.02;;;24.74;100.00
22566;BME280;11449;51.330;19.378;2022-08-01T22:16:47;99295.91;;;25.03;100.00
22566;BME280;11449;51.330;19.378;2022-08-01T22:21:50;99295.09;;;25.13;100.00
22566;BME280;11449;51.330;19.378;2022-08-01T22:26:52;99290.14;;;25.18;100.00
22566;BME280;11449;51.330;19.378;2022-08-01T22:31:56;99295.91;;;24.88;100.00
22566;BME280;11449;51.330;19.378;2022-08-01T22:36:57;99285.93;;;24.79;100.00
22566;BME280;11449;51.330;19.378;2022-08-01T22:41:59;99287.89;;;24.47;100.00
22566;BME280;11449;51.330;19.378;2022-08-01T22:47:10;99297.72;;;24.52;100.00
22566;BME280;11449;51.330;19.378;2022-08-01T22:52:19;99300.41;;;24.16;100.00
22566;BME280;11449;51.330;19.378;2022-08-01T22:57:30;99308.00;;;24.88;100.00
22566;BME280;11449;51.330;19.378;2022-08-01T23:02:35;99305.00;;;24.61;100.00
22566;BME280;11449;51.330;19.378;2022-08-01T23:07:45;99303.72;;;24.71;100.00
22566;BME280;11449;51.330;19.378;2022-08-01T23:12:48;99305.11;;;24.12;100.00
22566;BME280;11449;51.330;19.378;2022-08-01T23:17:51;99301.94;;;23.92;100.00
22566;BME280;11449;51.330;19.378;2022-08-01T23:22:54;99305.44;;;23.98;100.00
22566;BME280;11449;51.330;19.378;2022-08-01T23:27:56;99304.14;;;23.87;100.00
22566;BME280;11449;51.330;19.378;2022-08-01T23:32:59;99306.19;;;23.95;100.00
22566;BME280;11449;51.330;19.378;2022-08-01T23:38:00;99309.13;;;23.92;100.00
22566;BME280;11449;51.330;19.378;2022-08-01T23:43:04;99297.66;;;23.90;100.00
22566;BME280;11449;51.330;19.378;2022-08-01T23:48:05;99301.98;;;23.76;100.00
22566;BME280;11449;51.330;19.378;2022-08-01T23:53:07;99298.64;;;23.57;100.00
22566;BME280;11449;51.330;19.378;2022-08-01T23:58:08;99298.76;;;23.55;100.00
